Wednesday, August 15, 2018, 4:42 AM EDT
Back to Local

KABE, Lehigh Valley International Airport

Location: Allentown, PA, United States Lat: 40.65
Local Time: 4:42 AM EDT ( 8:42 GMT) Lon: -75.45
Time Zone: US/Eastern Elev: 393 ft

Show me the last for .
Show Decoded

2018-08-15 03:51 METAR KABE 150751Z 23006KT 8SM FEW120 20/18 A2990 RMK AO2 SLP122 T02000183 =
2018-08-15 02:51 METAR KABE 150651Z 22006KT 9SM CLR 20/18 A2989 RMK AO2 SLP119 T02000183 =
2018-08-15 01:51 METAR KABE 150551Z AUTO 24003KT 9SM CLR 21/18 A2989 RMK AO2 SLP118 60005
                 T02060183 10222 20200 58001 =
2018-08-15 00:51 METAR KABE 150451Z 26004KT 10SM BKN120 21/19 A2990 RMK AO2 RAB02E45 SLP121 P0002
                 T02110189 402670206 =
2018-08-14 23:51 METAR KABE 150351Z 24004KT 10SM BKN110 21/19 A2989 RMK AO2 RAB0254E08 SLP120
                 P0000 T02110189 =
2018-08-14 22:51 METAR KABE 150251Z 23006KT 10SM BKN070 21/19 A2989 RMK AO2 SLP119 60003
                 T02110194 51006 =
2018-08-14 21:51 METAR KABE 150151Z 23005KT 10SM FEW013 21/19 A2989 RMK AO2 RAB0052E21 SLP118
                 P0001 T02060189 =
2018-08-14 20:51 METAR KABE 150051Z 24004KT 9SM SCT038 BKN047 OVC080 21/19 A2988 RMK AO2 RAB07E38
                 SLP116 P0002 T02110189 =
2018-08-14 19:51 METAR KABE 142351Z 29004KT 10SM FEW025 BKN036 OVC047 22/19 A2987 RMK AO2
                 RAB27E42 SLP112 P0000 60024 T02170189 10267 20211 53006 =
2018-08-14 18:51 METAR KABE 142251Z 26004KT 10SM BKN049 BKN090 22/19 A2986 RMK AO2 RAB04E38
                 SLP109 P0002 T02220189 =
2018-08-14 18:28 METAR KABE 142228Z 28005KT 7SM -RA SCT018 BKN070 OVC110 23/20 A2986 RMK AO2
                 RAB04 P0001 T02280200 =
2018-08-14 18:15 METAR KABE 142215Z 25007KT 5SM RA SCT016 BKN029 BKN065 23/20 A2986 RMK AO2 RAB04
                 P0000 T02280200 =
2018-08-14 17:51 METAR KABE 142151Z 19005KT 10SM CLR 23/20 A2986 RMK AO2 RAE18 SLP107 P0000
                 T02280200 =
2018-08-14 16:51 METAR KABE 142051Z 23008KT 10SM -RA FEW055 BKN100 22/19 A2985 RMK AO2 LTG DSNT
                 NE-S TSE1954 SLP106 P0016 60022 T02220194 55003 =
2018-08-14 16:42 METAR KABE 142042Z 24008KT 5SM VCTS -RA FEW060 BKN100 OVC120 22/19 A2986 RMK AO2
                 LTG DSNT E-S TSE1954 P0015 T02220194 =
2018-08-14 16:15 METAR KABE 142015Z AUTO 25007KT 4SM -RA SCT044 BKN060 OVC100 21/18 A2984 RMK AO2
                 LTG DSNT SE-SW TSE1954 P0012 T02110183 =
2018-08-14 15:54 METAR KABE 141954Z 27012G19KT 2SM +RA FEW031 SCT042 BKN055 22/18 A2985 RMK AO2
                 VIS 1 1/2V4 LTG DSNT SW TSE54 P0001 T02170183 =
2018-08-14 15:51 METAR KABE 141951Z 26013G22KT 3SM +TSRA SCT032 SCT047 BKN055 22/18 A2985 RMK AO2
                 LTG DSNT SW RAB44 TSB36 SLP106 P0003 T02170183 =
2018-08-14 15:36 METAR KABE 141936Z 24008KT 10SM TS SCT095 26/19 A2984 RMK AO2 LTG DSNT W TSB36
                 T02560194 =
2018-08-14 14:51 METAR KABE 141851Z 22005KT 10SM CLR 25/20 A2985 RMK AO2 LTG DSNT E AND SE
                 RAB00E20 TSB15E30 SLP104 P0003 T02500200 =
2018-08-14 14:36 METAR KABE 141836Z 20006KT 10SM FEW100 24/20 A2986 RMK AO2 LTG DSNT SE RAB00E20
                 TSB15E30 P0003 T02440200 =
2018-08-14 14:21 METAR KABE 141821Z 20006KT 10SM TS FEW022 FEW041 SCT100 24/20 A2987 RMK AO2
                 RAB00E20 TSB15 P0003 T02440200 =
2018-08-14 13:51 METAR KABE 141751Z 20008KT 10SM FEW055 26/21 A2986 RMK AO2 LTG DSNT S AND SW
                 RAE13 SLP110 P0001 60015 T02560211 10261 20217 58006 =
2018-08-14 13:41 METAR KABE 141741Z 20007KT 10SM FEW055 25/21 A2987 RMK AO2 LTG DSNT SE-SW RAE13
                 P0001 T02500211 =
2018-08-14 13:00 METAR KABE 141700Z 22008KT 8SM VCTS -RA FEW029 BKN080 OVC110 23/20 A2988 RMK AO2
                 LTG DSNT NE-S P0001 T02330200 =
2018-08-14 12:51 METAR KABE 141651Z 23010KT 8SM -RA SCT029 BKN055 OVC100 23/20 A2987 RMK AO2 LTG
                 DSNT NE AND E RAB39 SLP113 P0000 T02330200 =
2018-08-14 12:46 METAR KABE 141646Z 23010G15KT 7SM RA FEW026 SCT035 BKN055 24/20 A2988 RMK AO2
                 LTG DSNT NE AND E AND SW RAB39 P0000 =
2018-08-14 12:13 METAR KABE 141613Z 25004KT 10SM VCTS FEW021 FEW055 25/21 A2988 RMK AO2 LTG DSNT
                 NE AND E T02500206 =
2018-08-14 11:51 METAR KABE 141551Z 26005KT 10SM SCT025 SCT047 BKN090 24/20 A2988 RMK AO2 LTG
                 DSNT NE RAB34E51 SLP116 P0014 T02440200 =
2018-08-14 11:48 METAR KABE 141548Z 26006KT 5SM -RA SCT025 BKN055 BKN070 24/21 A2988 RMK AO2 LTG
                 DSNT N AND NE RAB34 P0014 =
2018-08-14 11:37 METAR KABE 141537Z 27005KT 1 1/4SM +RA FEW017 BKN025 OVC070 24/20 A2989 RMK AO2
                 LTG DSNT N AND NE RAB34 P0002 T02390200 =
2018-08-14 10:51 METAR KABE 141451Z 21007KT 10SM SCT019 SCT050 25/19 A2988 RMK AO2 SLP117 60000
                 T02500194 58000 =
2018-08-14 10:24 METAR KABE 141424Z 25006KT 10SM SCT015 SCT021 BKN065 24/20 A2989 RMK AO2
                 T02440200 =
2018-08-14 10:05 METAR KABE 141405Z 23004KT 10SM SCT014 BKN020 OVC065 23/19 A2990 RMK AO2
                 T02330194 =
2018-08-14 09:51 METAR KABE 141351Z 25007KT 10SM BKN012 BKN035 OVC046 23/19 A2990 RMK AO2 RAE03
                 SLP123 P0000 T02330194 =
2018-08-14 09:21 METAR KABE 141321Z 23006KT 10SM SCT016 BKN038 OVC046 23/20 A2989 RMK AO2 RAE03
                 P0000 T02280200 =
2018-08-14 08:51 METAR KABE 141251Z 28007KT 7SM -RA SCT011 OVC017 22/19 A2990 RMK AO2 RAB50
                 SLP121 P0000 T02220194 =
2018-08-14 08:23 METAR KABE 141223Z 24008KT 10SM FEW009 SCT013 BKN018 23/19 A2990 RMK AO2
                 T02280194 =
2018-08-14 08:06 METAR KABE 141206Z 22007KT 10SM BKN011 23/19 A2989 RMK AO2 T02280194 =
2018-08-14 07:51 METAR KABE 141151Z 21006KT 10SM FEW011 SCT017 22/19 A2989 RMK AO2 SLP117 70259
                 T02220194 10222 20206 50005 =
2018-08-14 07:25 METAR KABE 141125Z 23004KT 10SM SCT016 SCT032 22/19 A2989 RMK AO2 T02170194 =
2018-08-14 06:51 METAR KABE 141051Z 23003KT 10SM OVC016 22/19 A2989 RMK AO2 SLP117 T02170194 =
2018-08-14 05:51 METAR KABE 140951Z 25003KT 7SM BKN016 OVC035 22/20 A2988 RMK AO2 SLP116
                 T02170200 =
2018-08-14 04:51 METAR KABE 140851Z 00000KT 7SM BKN004 OVC013 21/20 A2987 RMK AO2 SLP112
                 T02110200 56009 =

Support USWX by starting your Amazon purchase here.